sensor_id;sensor_type;location;lat;lon;timestamp;temperature;humidity
70151;DHT22;57517;43.562;19.540;2023-06-26T00:00:47;538.20;2406.40
70151;DHT22;57517;43.562;19.540;2023-06-26T00:03:13;538.30;2406.40
70151;DHT22;57517;43.562;19.540;2023-06-26T00:05:41;538.50;2406.40
70151;DHT22;57517;43.562;19.540;2023-06-26T00:08:07;563.30;2432.00
70151;DHT22;57517;43.562;19.540;2023-06-26T00:10:34;563.30;2432.00
70151;DHT22;57517;43.562;19.540;2023-06-26T00:13:00;563.40;2432.00
70151;DHT22;57517;43.562;19.540;2023-06-26T00:15:27;563.20;2432.00
70151;DHT22;57517;43.562;19.540;2023-06-26T00:17:57;538.20;2406.40
70151;DHT22;57517;43.562;19.540;2023-06-26T00:20:23;538.20;2406.40
70151;DHT22;57517;43.562;19.540;2023-06-26T00:22:50;538.30;2406.40
70151;DHT22;57517;43.562;19.540;2023-06-26T00:25:16;538.30;2406.40
70151;DHT22;57517;43.562;19.540;2023-06-26T00:27:42;538.40;2406.40
70151;DHT22;57517;43.562;19.540;2023-06-26T00:30:08;538.30;2406.40
70151;DHT22;57517;43.562;19.540;2023-06-26T00:32:34;538.20;2406.40
70151;DHT22;57517;43.562;19.540;2023-06-26T00:35:00;538.10;2406.40
70151;DHT22;57517;43.562;19.540;2023-06-26T00:37:25;538.10;2406.40
70151;DHT22;57517;43.562;19.540;2023-06-26T00:39:51;538.00;2406.40
70151;DHT22;57517;43.562;19.540;2023-06-26T00:42:17;537.90;2406.40
70151;DHT22;57517;43.562;19.540;2023-06-26T00:44:43;537.80;2406.40
70151;DHT22;57517;43.562;19.540;2023-06-26T00:47:11;537.80;2406.40
70151;DHT22;57517;43.562;19.540;2023-06-26T00:49:39;537.80;2406.40
70151;DHT22;57517;43.562;19.540;2023-06-26T00:52:06;537.70;2406.40
70151;DHT22;57517;43.562;19.540;2023-06-26T00:54:32;537.80;2406.40
70151;DHT22;57517;43.562;19.540;2023-06-26T00:56:58;537.80;2406.40
70151;DHT22;57517;43.562;19.540;2023-06-26T00:59:23;537.80;2406.40
70151;DHT22;57517;43.562;19.540;2023-06-26T01:01:49;537.80;2406.40
70151;DHT22;57517;43.562;19.540;2023-06-26T01:04:15;537.90;2406.40
70151;DHT22;57517;43.562;19.540;2023-06-26T01:06:46;538.00;2406.40
70151;DHT22;57517;43.562;19.540;2023-06-26T01:09:22;537.80;2406.40
70151;DHT22;57517;43.562;19.540;2023-06-26T01:11:48;538.10;2406.40
70151;DHT22;57517;43.562;19.540;2023-06-26T01:14:14;537.90;2406.40
70151;DHT22;57517;43.562;19.540;2023-06-26T01:16:41;537.90;2406.40
70151;DHT22;57517;43.562;19.540;2023-06-26T01:19:39;538.00;2406.40
70151;DHT22;57517;43.562;19.540;2023-06-26T01:22:27;538.20;2406.40
70151;DHT22;57517;43.562;19.540;2023-06-26T01:25:50;538.30;2406.40
70151;DHT22;57517;43.562;19.540;2023-06-26T01:27:52;538.30;2406.40
70151;DHT22;57517;43.562;19.540;2023-06-26T01:30:19;538.30;2406.40
70151;DHT22;57517;43.562;19.540;2023-06-26T01:32:46;538.10;2406.40
70151;DHT22;57517;43.562;19.540;2023-06-26T01:35:12;538.20;2406.40
70151;DHT22;57517;43.562;19.540;2023-06-26T01:37:39;538.30;2406.40
70151;DHT22;57517;43.562;19.540;2023-06-26T01:40:05;538.30;2406.40
70151;DHT22;57517;43.562;19.540;2023-06-26T01:42:34;538.10;2406.40
70151;DHT22;57517;43.562;19.540;2023-06-26T01:45:27;538.10;2406.40
70151;DHT22;57517;43.562;19.540;2023-06-26T01:47:57;538.00;2406.40
70151;DHT22;57517;43.562;19.540;2023-06-26T01:50:28;538.10;2406.40
70151;DHT22;57517;43.562;19.540;2023-06-26T01:58:07;537.90;2406.40
70151;DHT22;57517;43.562;19.540;2023-06-26T02:00:34;537.90;2406.40
70151;DHT22;57517;43.562;19.540;2023-06-26T02:03:01;538.10;2406.40
70151;DHT22;57517;43.562;19.540;2023-06-26T02:05:27;538.10;2406.40
70151;DHT22;57517;43.562;19.540;2023-06-26T02:07:52;538.20;2406.40
70151;DHT22;57517;43.562;19.540;2023-06-26T02:10:18;538.20;2406.40
70151;DHT22;57517;43.562;19.540;2023-06-26T02:12:44;538.00;2406.40
70151;DHT22;57517;43.562;19.540;2023-06-26T02:15:10;538.10;2406.40
70151;DHT22;57517;43.562;19.540;2023-06-26T02:17:36;538.10;2406.40
70151;DHT22;57517;43.562;19.540;2023-06-26T02:20:02;538.20;2406.40
70151;DHT22;57517;43.562;19.540;2023-06-26T02:22:28;538.10;2406.40
70151;DHT22;57517;43.562;19.540;2023-06-26T02:24:54;537.90;2406.40
70151;DHT22;57517;43.562;19.540;2023-06-26T02:27:20;538.00;2406.40
70151;DHT22;57517;43.562;19.540;2023-06-26T02:29:45;537.70;2406.40
70151;DHT22;57517;43.562;19.540;2023-06-26T02:32:11;537.70;2406.40
70151;DHT22;57517;43.562;19.540;2023-06-26T02:34:37;537.60;2406.40
70151;DHT22;57517;43.562;19.540;2023-06-26T02:37:03;537.60;2406.40
70151;DHT22;57517;43.562;19.540;2023-06-26T02:39:28;537.80;2406.40
70151;DHT22;57517;43.562;19.540;2023-06-26T02:41:54;537.80;2406.40
70151;DHT22;57517;43.562;19.540;2023-06-26T02:44:20;537.80;2406.40
70151;DHT22;57517;43.562;19.540;2023-06-26T02:46:46;537.80;2406.40
70151;DHT22;57517;43.562;19.540;2023-06-26T02:49:12;537.80;2406.40
70151;DHT22;57517;43.562;19.540;2023-06-26T02:51:38;537.80;2406.40
70151;DHT22;57517;43.562;19.540;2023-06-26T02:54:04;537.90;2406.40
70151;DHT22;57517;43.562;19.540;2023-06-26T02:56:30;537.90;2406.40
70151;DHT22;57517;43.562;19.540;2023-06-26T02:58:56;537.90;2406.40
70151;DHT22;57517;43.562;19.540;2023-06-26T03:01:22;538.00;2406.40
70151;DHT22;57517;43.562;19.540;2023-06-26T03:03:48;537.90;2406.40
70151;DHT22;57517;43.562;19.540;2023-06-26T03:06:14;537.80;2406.40
70151;DHT22;57517;43.562;19.540;2023-06-26T03:08:40;537.80;2406.40
70151;DHT22;57517;43.562;19.540;2023-06-26T03:11:07;537.80;2406.40
70151;DHT22;57517;43.562;19.540;2023-06-26T03:13:34;537.80;2406.40
70151;DHT22;57517;43.562;19.540;2023-06-26T03:16:00;537.80;2406.40
70151;DHT22;57517;43.562;19.540;2023-06-26T03:18:26;537.80;2406.40
70151;DHT22;57517;43.562;19.540;2023-06-26T03:20:52;537.80;2406.40
70151;DHT22;57517;43.562;19.540;2023-06-26T03:23:20;537.80;2406.40
70151;DHT22;57517;43.562;19.540;2023-06-26T03:25:46;537.90;2406.40
70151;DHT22;57517;43.562;19.540;2023-06-26T03:28:12;537.80;2406.40
70151;DHT22;57517;43.562;19.540;2023-06-26T03:30:38;537.80;2406.40
70151;DHT22;57517;43.562;19.540;2023-06-26T03:33:03;537.80;2406.40
70151;DHT22;57517;43.562;19.540;2023-06-26T03:35:29;537.60;2406.40
70151;DHT22;57517;43.562;19.540;2023-06-26T03:37:55;537.60;2406.40
70151;DHT22;57517;43.562;19.540;2023-06-26T03:40:21;537.80;2406.40
70151;DHT22;57517;43.562;19.540;2023-06-26T03:42:46;537.90;2406.40
70151;DHT22;57517;43.562;19.540;2023-06-26T03:45:12;537.90;2406.40
70151;DHT22;57517;43.562;19.540;2023-06-26T03:47:38;537.90;2406.40
70151;DHT22;57517;43.562;19.540;2023-06-26T03:50:04;537.70;2406.40
70151;DHT22;57517;43.562;19.540;2023-06-26T03:52:30;537.60;2406.40
70151;DHT22;57517;43.562;19.540;2023-06-26T03:54:57;537.60;2406.40
70151;DHT22;57517;43.562;19.540;2023-06-26T03:57:23;512.90;2380.80
70151;DHT22;57517;43.562;19.540;2023-06-26T03:59:50;512.80;2380.80
70151;DHT22;57517;43.562;19.540;2023-06-26T04:02:15;512.90;2380.80
70151;DHT22;57517;43.562;19.540;2023-06-26T04:04:41;537.60;2406.40
70151;DHT22;57517;43.562;19.540;2023-06-26T04:07:07;537.80;2406.40
70151;DHT22;57517;43.562;19.540;2023-06-26T04:09:33;537.90;2406.40
70151;DHT22;57517;43.562;19.540;2023-06-26T04:11:58;537.80;2406.40
70151;DHT22;57517;43.562;19.540;2023-06-26T04:14:24;537.90;2406.40
70151;DHT22;57517;43.562;19.540;2023-06-26T04:16:50;537.80;2406.40
70151;DHT22;57517;43.562;19.540;2023-06-26T04:19:16;537.90;2406.40
70151;DHT22;57517;43.562;19.540;2023-06-26T04:21:42;538.10;2406.40
70151;DHT22;57517;43.562;19.540;2023-06-26T04:24:08;538.40;2406.40
70151;DHT22;57517;43.562;19.540;2023-06-26T04:26:34;538.50;2406.40
70151;DHT22;57517;43.562;19.540;2023-06-26T04:29:00;563.40;2432.00
70151;DHT22;57517;43.562;19.540;2023-06-26T04:31:26;563.40;2432.00
70151;DHT22;57517;43.562;19.540;2023-06-26T04:33:51;563.20;2432.00
70151;DHT22;57517;43.562;19.540;2023-06-26T04:36:20;538.50;2406.40
70151;DHT22;57517;43.562;19.540;2023-06-26T04:38:46;538.40;2406.40
70151;DHT22;57517;43.562;19.540;2023-06-26T04:41:14;563.30;2432.00
70151;DHT22;57517;43.562;19.540;2023-06-26T04:43:39;563.40;2432.00
70151;DHT22;57517;43.562;19.540;2023-06-26T04:46:05;563.40;2432.00
70151;DHT22;57517;43.562;19.540;2023-06-26T04:48:32;563.30;2432.00
70151;DHT22;57517;43.562;19.540;2023-06-26T04:50:58;563.40;2432.00
70151;DHT22;57517;43.562;19.540;2023-06-26T04:53:24;563.40;2432.00
70151;DHT22;57517;43.562;19.540;2023-06-26T04:55:51;563.30;2432.00
70151;DHT22;57517;43.562;19.540;2023-06-26T04:58:18;538.50;2406.40
70151;DHT22;57517;43.562;19.540;2023-06-26T05:00:44;538.50;2406.40
70151;DHT22;57517;43.562;19.540;2023-06-26T05:03:12;538.50;2406.40
70151;DHT22;57517;43.562;19.540;2023-06-26T05:05:38;563.20;2432.00
70151;DHT22;57517;43.562;19.540;2023-06-26T05:08:14;563.30;2432.00
70151;DHT22;57517;43.562;19.540;2023-06-26T05:10:41;563.40;2432.00
70151;DHT22;57517;43.562;19.540;2023-06-26T05:13:06;563.30;2432.00
70151;DHT22;57517;43.562;19.540;2023-06-26T05:15:32;563.40;2432.00
70151;DHT22;57517;43.562;19.540;2023-06-26T05:17:58;563.40;2432.00
70151;DHT22;57517;43.562;19.540;2023-06-26T05:20:24;563.60;2432.00
70151;DHT22;57517;43.562;19.540;2023-06-26T05:22:50;563.90;2432.00
70151;DHT22;57517;43.562;19.540;2023-06-26T05:25:18;589.00;2432.00
70151;DHT22;57517;43.562;19.540;2023-06-26T05:27:44;614.60;2227.20
70151;DHT22;57517;43.562;19.540;2023-06-26T05:30:10;640.00;1996.80
70151;DHT22;57517;43.562;19.540;2023-06-26T05:32:38;640.00;1945.60
70151;DHT22;57517;43.562;19.540;2023-06-26T05:35:06;640.00;1945.60
70151;DHT22;57517;43.562;19.540;2023-06-26T05:37:33;640.10;1920.00
70151;DHT22;57517;43.562;19.540;2023-06-26T05:40:00;640.10;1894.40
70151;DHT22;57517;43.562;19.540;2023-06-26T05:42:27;615.20;1920.00
70151;DHT22;57517;43.562;19.540;2023-06-26T05:44:53;615.30;1945.60
70151;DHT22;57517;43.562;19.540;2023-06-26T05:47:19;615.00;1971.20
70151;DHT22;57517;43.562;19.540;2023-06-26T05:49:45;614.90;2022.40
70151;DHT22;57517;43.562;19.540;2023-06-26T05:52:11;614.70;2048.00
70151;DHT22;57517;43.562;19.540;2023-06-26T05:54:38;614.60;2073.60
70151;DHT22;57517;43.562;19.540;2023-06-26T05:57:04;614.70;2048.00
70151;DHT22;57517;43.562;19.540;2023-06-26T05:59:36;640.30;1868.80
70151;DHT22;57517;43.562;19.540;2023-06-26T06:02:02;640.10;1894.40
70151;DHT22;57517;43.562;19.540;2023-06-26T06:04:28;640.00;1894.40
70151;DHT22;57517;43.562;19.540;2023-06-26T06:06:54;615.10;1945.60
70151;DHT22;57517;43.562;19.540;2023-06-26T06:09:20;615.20;1920.00
70151;DHT22;57517;43.562;19.540;2023-06-26T06:11:45;640.10;1868.80
70151;DHT22;57517;43.562;19.540;2023-06-26T06:14:11;640.50;1792.00
70151;DHT22;57517;43.562;19.540;2023-06-26T06:16:37;665.80;1740.80
70151;DHT22;57517;43.562;19.540;2023-06-26T06:19:03;666.10;1689.60
70151;DHT22;57517;43.562;19.540;2023-06-26T06:21:29;666.40;1638.40
70151;DHT22;57517;43.562;19.540;2023-06-26T06:23:55;742.60;1459.20
70151;DHT22;57517;43.562;19.540;2023-06-26T06:26:21;742.80;1382.40
70151;DHT22;57517;43.562;19.540;2023-06-26T06:28:47;793.80;1280.00
70151;DHT22;57517;43.562;19.540;2023-06-26T06:31:12;819.80;1203.20
70151;DHT22;57517;43.562;19.540;2023-06-26T06:33:38;845.20;1177.60
70151;DHT22;57517;43.562;19.540;2023-06-26T06:36:04;871.10;1100.80
70151;DHT22;57517;43.562;19.540;2023-06-26T06:38:30;871.10;1049.60
70151;DHT22;57517;43.562;19.540;2023-06-26T06:40:56;870.80;1075.20
70151;DHT22;57517;43.562;19.540;2023-06-26T06:43:22;819.50;1152.00
70151;DHT22;57517;43.562;19.540;2023-06-26T06:45:48;794.00;1203.20
70151;DHT22;57517;43.562;19.540;2023-06-26T06:48:14;768.40;1254.40
70151;DHT22;57517;43.562;19.540;2023-06-26T06:50:40;743.00;1305.60
70151;DHT22;57517;43.562;19.540;2023-06-26T06:53:07;743.00;1305.60
70151;DHT22;57517;43.562;19.540;2023-06-26T06:55:32;793.70;1280.00
70151;DHT22;57517;43.562;19.540;2023-06-26T06:57:58;742.80;1356.80
70151;DHT22;57517;43.562;19.540;2023-06-26T07:00:24;768.70;1280.00
70151;DHT22;57517;43.562;19.540;2023-06-26T07:02:50;844.90;1152.00
70151;DHT22;57517;43.562;19.540;2023-06-26T07:05:16;820.10;1152.00
70151;DHT22;57517;43.562;19.540;2023-06-26T07:07:42;845.70;1100.80
70151;DHT22;57517;43.562;19.540;2023-06-26T07:10:10;845.70;1100.80
70151;DHT22;57517;43.562;19.540;2023-06-26T07:12:37;845.10;1126.40
70151;DHT22;57517;43.562;19.540;2023-06-26T07:15:04;819.80;1152.00
70151;DHT22;57517;43.562;19.540;2023-06-26T07:17:31;820.10;1126.40
70151;DHT22;57517;43.562;19.540;2023-06-26T07:19:57;845.20;1126.40
70151;DHT22;57517;43.562;19.540;2023-06-26T07:22:23;819.80;1152.00
70151;DHT22;57517;43.562;19.540;2023-06-26T07:24:49;819.60;1152.00
70151;DHT22;57517;43.562;19.540;2023-06-26T07:27:15;844.90;1126.40
70151;DHT22;57517;43.562;19.540;2023-06-26T07:29:42;794.00;1228.80
70151;DHT22;57517;43.562;19.540;2023-06-26T07:32:07;768.40;1254.40
70151;DHT22;57517;43.562;19.540;2023-06-26T07:34:33;768.50;1254.40
70151;DHT22;57517;43.562;19.540;2023-06-26T07:36:59;742.70;1331.20
70151;DHT22;57517;43.562;19.540;2023-06-26T07:39:25;819.40;1177.60
70151;DHT22;57517;43.562;19.540;2023-06-26T07:41:51;845.00;1152.00
70151;DHT22;57517;43.562;19.540;2023-06-26T07:44:17;871.00;1049.60
70151;DHT22;57517;43.562;19.540;2023-06-26T07:46:43;896.60;972.80
70151;DHT22;57517;43.562;19.540;2023-06-26T07:49:10;896.80;972.80
70151;DHT22;57517;43.562;19.540;2023-06-26T07:51:37;922.20;972.80
70151;DHT22;57517;43.562;19.540;2023-06-26T15:04:24;717.60;1152.00
70151;DHT22;57517;43.562;19.540;2023-06-26T15:06:50;717.30;1203.20
70151;DHT22;57517;43.562;19.540;2023-06-26T15:09:15;717.00;1254.40
70151;DHT22;57517;43.562;19.540;2023-06-26T15:11:41;717.00;1254.40
70151;DHT22;57517;43.562;19.540;2023-06-26T15:14:08;717.20;1254.40
70151;DHT22;57517;43.562;19.540;2023-06-26T15:16:34;717.20;1254.40
70151;DHT22;57517;43.562;19.540;2023-06-26T15:19:00;717.40;1228.80
70151;DHT22;57517;43.562;19.540;2023-06-26T15:21:26;717.60;1228.80
70151;DHT22;57517;43.562;19.540;2023-06-26T15:23:52;717.70;1177.60
70151;DHT22;57517;43.562;19.540;2023-06-26T15:26:18;742.40;1177.60
70151;DHT22;57517;43.562;19.540;2023-06-26T15:28:44;742.60;1152.00
70151;DHT22;57517;43.562;19.540;2023-06-26T15:31:09;742.60;1177.60
70151;DHT22;57517;43.562;19.540;2023-06-26T15:33:35;742.70;1177.60
70151;DHT22;57517;43.562;19.540;2023-06-26T15:36:01;742.80;1177.60
70151;DHT22;57517;43.562;19.540;2023-06-26T15:38:30;742.90;1177.60
70151;DHT22;57517;43.562;19.540;2023-06-26T15:40:56;742.90;1152.00
70151;DHT22;57517;43.562;19.540;2023-06-26T15:43:22;743.00;1152.00
70151;DHT22;57517;43.562;19.540;2023-06-26T15:45:48;743.10;1126.40
70151;DHT22;57517;43.562;19.540;2023-06-26T15:48:13;743.10;1126.40
70151;DHT22;57517;43.562;19.540;2023-06-26T15:50:39;743.30;1126.40
70151;DHT22;57517;43.562;19.540;2023-06-26T15:53:05;743.30;1100.80
70151;DHT22;57517;43.562;19.540;2023-06-26T15:55:31;743.30;1100.80
70151;DHT22;57517;43.562;19.540;2023-06-26T15:57:57;743.30;1100.80
70151;DHT22;57517;43.562;19.540;2023-06-26T16:00:23;743.30;1126.40
70151;DHT22;57517;43.562;19.540;2023-06-26T16:02:49;743.10;1126.40
70151;DHT22;57517;43.562;19.540;2023-06-26T16:05:15;742.90;1126.40
70151;DHT22;57517;43.562;19.540;2023-06-26T16:07:41;742.80;1126.40
70151;DHT22;57517;43.562;19.540;2023-06-26T16:10:07;742.80;1126.40
70151;DHT22;57517;43.562;19.540;2023-06-26T16:12:33;742.80;1126.40
70151;DHT22;57517;43.562;19.540;2023-06-26T16:14:59;742.70;1152.00
70151;DHT22;57517;43.562;19.540;2023-06-26T16:17:24;742.80;1126.40
70151;DHT22;57517;43.562;19.540;2023-06-26T16:19:50;742.80;1152.00
70151;DHT22;57517;43.562;19.540;2023-06-26T16:22:16;742.70;1152.00
70151;DHT22;57517;43.562;19.540;2023-06-26T16:24:42;742.60;1152.00
70151;DHT22;57517;43.562;19.540;2023-06-26T16:27:08;742.60;1177.60
70151;DHT22;57517;43.562;19.540;2023-06-26T16:29:34;742.70;1177.60
70151;DHT22;57517;43.562;19.540;2023-06-26T16:32:00;742.70;1177.60
70151;DHT22;57517;43.562;19.540;2023-06-26T16:34:27;742.60;1177.60
70151;DHT22;57517;43.562;19.540;2023-06-26T16:36:53;742.50;1177.60
70151;DHT22;57517;43.562;19.540;2023-06-26T16:39:19;742.40;1228.80
70151;DHT22;57517;43.562;19.540;2023-06-26T16:41:47;717.50;1254.40
70151;DHT22;57517;43.562;19.540;2023-06-26T16:44:14;717.30;1305.60
70151;DHT22;57517;43.562;19.540;2023-06-26T16:46:40;717.00;1356.80
70151;DHT22;57517;43.562;19.540;2023-06-26T16:49:06;692.00;1382.40
70151;DHT22;57517;43.562;19.540;2023-06-26T16:51:32;692.00;1408.00
70151;DHT22;57517;43.562;19.540;2023-06-26T16:53:57;691.90;1408.00
70151;DHT22;57517;43.562;19.540;2023-06-26T16:56:23;691.90;1408.00
70151;DHT22;57517;43.562;19.540;2023-06-26T16:58:49;691.90;1408.00
70151;DHT22;57517;43.562;19.540;2023-06-26T17:01:15;692.00;1382.40
70151;DHT22;57517;43.562;19.540;2023-06-26T17:03:41;691.70;1433.60
70151;DHT22;57517;43.562;19.540;2023-06-26T17:06:06;691.50;1459.20
70151;DHT22;57517;43.562;19.540;2023-06-26T17:08:35;691.40;1484.80
70151;DHT22;57517;43.562;19.540;2023-06-26T17:11:01;691.20;1484.80
70151;DHT22;57517;43.562;19.540;2023-06-26T17:13:27;691.20;1484.80
70151;DHT22;57517;43.562;19.540;2023-06-26T17:15:54;666.50;1484.80
70151;DHT22;57517;43.562;19.540;2023-06-26T17:18:20;666.30;1510.40
70151;DHT22;57517;43.562;19.540;2023-06-26T17:20:45;666.40;1484.80
70151;DHT22;57517;43.562;19.540;2023-06-26T17:23:11;666.40;1484.80
70151;DHT22;57517;43.562;19.540;2023-06-26T17:25:37;666.40;1510.40
70151;DHT22;57517;43.562;19.540;2023-06-26T17:28:03;666.40;1484.80
70151;DHT22;57517;43.562;19.540;2023-06-26T17:30:29;666.40;1510.40
70151;DHT22;57517;43.562;19.540;2023-06-26T17:32:54;666.30;1561.60
70151;DHT22;57517;43.562;19.540;2023-06-26T17:35:20;666.30;1561.60
70151;DHT22;57517;43.562;19.540;2023-06-26T17:37:46;666.30;1561.60
70151;DHT22;57517;43.562;19.540;2023-06-26T17:40:12;666.30;1561.60
70151;DHT22;57517;43.562;19.540;2023-06-26T17:42:38;666.10;1587.20
70151;DHT22;57517;43.562;19.540;2023-06-26T17:45:08;666.10;1587.20
70151;DHT22;57517;43.562;19.540;2023-06-26T17:47:34;665.90;1612.80
70151;DHT22;57517;43.562;19.540;2023-06-26T17:50:04;665.70;1638.40
70151;DHT22;57517;43.562;19.540;2023-06-26T17:52:30;640.90;1612.80
70151;DHT22;57517;43.562;19.540;2023-06-26T17:54:56;640.70;1638.40
70151;DHT22;57517;43.562;19.540;2023-06-26T17:57:22;640.70;1664.00
70151;DHT22;57517;43.562;19.540;2023-06-26T17:59:48;640.40;1664.00
70151;DHT22;57517;43.562;19.540;2023-06-26T18:02:14;640.30;1689.60
70151;DHT22;57517;43.562;19.540;2023-06-26T18:04:39;640.10;1740.80
70151;DHT22;57517;43.562;19.540;2023-06-26T18:07:05;640.00;1740.80
70151;DHT22;57517;43.562;19.540;2023-06-26T18:09:31;615.10;1792.00
70151;DHT22;57517;43.562;19.540;2023-06-26T18:11:57;614.90;1817.60
70151;DHT22;57517;43.562;19.540;2023-06-26T18:14:23;614.80;1843.20
70151;DHT22;57517;43.562;19.540;2023-06-26T18:16:48;615.10;1843.20
70151;DHT22;57517;43.562;19.540;2023-06-26T18:19:14;615.10;1817.60
70151;DHT22;57517;43.562;19.540;2023-06-26T18:21:40;614.80;1817.60
70151;DHT22;57517;43.562;19.540;2023-06-26T18:24:06;614.70;1843.20
70151;DHT22;57517;43.562;19.540;2023-06-26T18:26:32;614.70;1843.20
70151;DHT22;57517;43.562;19.540;2023-06-26T18:28:58;614.60;1868.80
70151;DHT22;57517;43.562;19.540;2023-06-26T18:31:24;614.60;1843.20
70151;DHT22;57517;43.562;19.540;2023-06-26T18:33:51;614.70;1843.20
70151;DHT22;57517;43.562;19.540;2023-06-26T18:36:16;614.60;1868.80
70151;DHT22;57517;43.562;19.540;2023-06-26T18:38:43;614.50;1945.60
70151;DHT22;57517;43.562;19.540;2023-06-26T18:41:10;614.50;1971.20
70151;DHT22;57517;43.562;19.540;2023-06-26T18:43:38;614.50;1996.80
70151;DHT22;57517;43.562;19.540;2023-06-26T18:46:04;614.50;1894.40
70151;DHT22;57517;43.562;19.540;2023-06-26T18:48:30;614.40;1894.40
70151;DHT22;57517;43.562;19.540;2023-06-26T18:50:56;589.50;1971.20
70151;DHT22;57517;43.562;19.540;2023-06-26T18:53:22;589.40;2022.40
70151;DHT22;57517;43.562;19.540;2023-06-26T18:55:48;589.40;2022.40
70151;DHT22;57517;43.562;19.540;2023-06-26T18:58:14;589.20;2073.60
70151;DHT22;57517;43.562;19.540;2023-06-26T19:00:39;589.10;2073.60
70151;DHT22;57517;43.562;19.540;2023-06-26T19:03:05;589.10;2124.80
70151;DHT22;57517;43.562;19.540;2023-06-26T19:05:31;589.00;2150.40
70151;DHT22;57517;43.562;19.540;2023-06-26T19:07:57;589.10;2150.40
70151;DHT22;57517;43.562;19.540;2023-06-26T19:10:23;589.00;2124.80
70151;DHT22;57517;43.562;19.540;2023-06-26T19:12:49;588.90;2150.40
70151;DHT22;57517;43.562;19.540;2023-06-26T19:15:18;588.90;2150.40
70151;DHT22;57517;43.562;19.540;2023-06-26T19:17:44;588.80;2150.40
70151;DHT22;57517;43.562;19.540;2023-06-26T19:20:10;588.80;2176.00
70151;DHT22;57517;43.562;19.540;2023-06-26T19:22:36;564.10;2227.20
70151;DHT22;57517;43.562;19.540;2023-06-26T19:25:04;564.10;2201.60
70151;DHT22;57517;43.562;19.540;2023-06-26T19:27:30;588.90;2176.00
70151;DHT22;57517;43.562;19.540;2023-06-26T19:29:56;588.90;2176.00
70151;DHT22;57517;43.562;19.540;2023-06-26T19:32:21;589.00;2150.40
70151;DHT22;57517;43.562;19.540;2023-06-26T19:34:47;589.00;2176.00
70151;DHT22;57517;43.562;19.540;2023-06-26T19:37:13;589.00;2150.40
70151;DHT22;57517;43.562;19.540;2023-06-26T19:39:40;588.90;2201.60
70151;DHT22;57517;43.562;19.540;2023-06-26T19:42:06;564.10;2252.80
70151;DHT22;57517;43.562;19.540;2023-06-26T19:44:32;564.10;2227.20
70151;DHT22;57517;43.562;19.540;2023-06-26T19:46:58;564.10;2227.20
70151;DHT22;57517;43.562;19.540;2023-06-26T19:49:24;588.80;2176.00
70151;DHT22;57517;43.562;19.540;2023-06-26T19:51:49;588.90;2176.00
70151;DHT22;57517;43.562;19.540;2023-06-26T19:54:15;588.80;2176.00
70151;DHT22;57517;43.562;19.540;2023-06-26T19:56:41;563.90;2227.20
70151;DHT22;57517;43.562;19.540;2023-06-26T19:59:07;563.80;2304.00
70151;DHT22;57517;43.562;19.540;2023-06-26T20:01:33;563.80;2252.80
70151;DHT22;57517;43.562;19.540;2023-06-26T20:03:59;563.60;2329.60
70151;DHT22;57517;43.562;19.540;2023-06-26T20:06:37;563.60;2304.00
70151;DHT22;57517;43.562;19.540;2023-06-26T20:09:04;563.20;2432.00
70151;DHT22;57517;43.562;19.540;2023-06-26T20:11:30;563.20;2432.00
70151;DHT22;57517;43.562;19.540;2023-06-26T20:13:56;563.20;2432.00
70151;DHT22;57517;43.562;19.540;2023-06-26T20:16:22;563.30;2406.40
70151;DHT22;57517;43.562;19.540;2023-06-26T20:18:48;563.40;2406.40
70151;DHT22;57517;43.562;19.540;2023-06-26T20:21:14;563.40;2406.40
70151;DHT22;57517;43.562;19.540;2023-06-26T20:23:41;563.30;2406.40
70151;DHT22;57517;43.562;19.540;2023-06-26T20:26:07;563.20;2432.00
70151;DHT22;57517;43.562;19.540;2023-06-26T20:28:33;538.30;2406.40
70151;DHT22;57517;43.562;19.540;2023-06-26T20:30:58;538.30;2406.40
70151;DHT22;57517;43.562;19.540;2023-06-26T20:33:24;538.30;2406.40
70151;DHT22;57517;43.562;19.540;2023-06-26T20:35:51;538.40;2406.40
70151;DHT22;57517;43.562;19.540;2023-06-26T20:38:17;563.30;2432.00
70151;DHT22;57517;43.562;19.540;2023-06-26T20:40:44;563.20;2432.00
70151;DHT22;57517;43.562;19.540;2023-06-26T20:43:10;538.40;2406.40
70151;DHT22;57517;43.562;19.540;2023-06-26T20:45:37;538.30;2406.40
70151;DHT22;57517;43.562;19.540;2023-06-26T20:48:05;538.50;2406.40
70151;DHT22;57517;43.562;19.540;2023-06-26T20:50:31;538.50;2406.40
70151;DHT22;57517;43.562;19.540;2023-06-26T20:52:57;538.40;2406.40
70151;DHT22;57517;43.562;19.540;2023-06-26T20:55:24;538.40;2406.40
70151;DHT22;57517;43.562;19.540;2023-06-26T20:57:50;538.30;2406.40
70151;DHT22;57517;43.562;19.540;2023-06-26T21:00:16;538.40;2406.40
70151;DHT22;57517;43.562;19.540;2023-06-26T21:02:42;538.40;2406.40
70151;DHT22;57517;43.562;19.540;2023-06-26T21:05:08;538.20;2406.40
70151;DHT22;57517;43.562;19.540;2023-06-26T21:07:34;538.20;2406.40
70151;DHT22;57517;43.562;19.540;2023-06-26T21:10:00;538.10;2406.40
70151;DHT22;57517;43.562;19.540;2023-06-26T21:12:27;538.10;2406.40
70151;DHT22;57517;43.562;19.540;2023-06-26T21:14:53;538.20;2406.40
70151;DHT22;57517;43.562;19.540;2023-06-26T21:17:19;538.20;2406.40
70151;DHT22;57517;43.562;19.540;2023-06-26T21:19:45;538.10;2406.40
70151;DHT22;57517;43.562;19.540;2023-06-26T21:22:11;538.20;2406.40
70151;DHT22;57517;43.562;19.540;2023-06-26T21:24:37;538.10;2406.40
70151;DHT22;57517;43.562;19.540;2023-06-26T21:27:03;538.20;2406.40
70151;DHT22;57517;43.562;19.540;2023-06-26T21:29:29;538.20;2406.40
70151;DHT22;57517;43.562;19.540;2023-06-26T21:31:55;538.00;2406.40
70151;DHT22;57517;43.562;19.540;2023-06-26T21:34:21;512.80;2380.80
70151;DHT22;57517;43.562;19.540;2023-06-26T21:36:47;512.80;2380.80
70151;DHT22;57517;43.562;19.540;2023-06-26T21:39:13;512.70;2380.80
70151;DHT22;57517;43.562;19.540;2023-06-26T21:41:40;512.60;2380.80
70151;DHT22;57517;43.562;19.540;2023-06-26T21:44:06;512.70;2380.80
70151;DHT22;57517;43.562;19.540;2023-06-26T21:46:32;512.80;2380.80